Malatya/Erhac, Turkey
Current Conditions -  °F | °C
As of 11:50 AM on Saturday 22 Nov 2014 (Local Time) from LTAT Reporting Station
Broken Clouds Broken Clouds  
Wind Chill:   Ceiling: 10000
Heat Index:   Visibility: 6mi
Dew Point:   Wind: 3mph
Humidity: 76%   Direction: 120°ESE
Pressure: 29.8"   Gusts: NA
Location:  38.43°N, 38.08°E
Report Text: LTAT 220850Z 12003KT 060V180 9999 FEW020 SCT035 BKN100 09/05 Q1009 NOSIG
Loading
Personal Weather Stations






























Interactive Weather Map New forecast layout! Learn more

10-Day Weather Forecast

Advertisements
Track Severe Weather on mobile